»·PEaware :: ASA258 KPDX-KSMF

ASA258 :: KPDX-KSMF

FLIGHT INFORMATION

Flight Status: Arrived
Operator:
Alaska Airlines
More flights by this operator :: More flights under this callsign
Pilot: Brad M. (22842)
Aircraft: AIRBUS A319
(A319)
More flights by this aircraft type
Origin: KPDX Portland Intl
United States
Destination: KSMF Sacramento Intl
United States
More flights between these airports :: More routes between these airports
Route: HRMNS5 HRMNS J189 LMT TUDOR2
File this flight plan on PilotEdge
Remarks:
Altitude:
(Current/Filed)
37,000ft
Speed:
(Current/Filed)
451kts
Departed: 24-Oct-19 05:02 PM
Arrived: 24-Oct-19 06:06 PM
Distance/Time
Traveled:
416nm/1:03
Distance/Time
To Go:
Arrived

Flight Plot

Page will automatically refresh every two minutes.

Flight plan parsing failed; only flown route is shown


Map Options




Map Legend


Flown Route
Filed Route
Departure Airport
Arrival Airport
Navaid (VOR, NDB)
Fix

Horizontal Profiles

Position Reports

Time Latitude Longitude Heading Altitude Ground
Speed
24-Oct-19 16:33 45.589208 -122.598487 19 44ft 0kts
24-Oct-19 16:34 45.589208 -122.598487 19 44ft 0kts
24-Oct-19 16:35 45.589208 -122.598487 19 44ft 0kts
24-Oct-19 16:36 45.589208 -122.598487 19 44ft 0kts
24-Oct-19 16:37 45.589208 -122.598487 19 44ft 0kts
24-Oct-19 16:38 45.589208 -122.598487 19 44ft 0kts
24-Oct-19 16:39 45.589208 -122.598487 19 44ft 0kts
24-Oct-19 16:40 45.589208 -122.598487 19 44ft 0kts
24-Oct-19 16:41 45.589208 -122.598487 19 44ft 0kts
24-Oct-19 16:42 45.589208 -122.598487 19 44ft 0kts
24-Oct-19 16:43 45.589208 -122.598487 19 44ft 0kts
24-Oct-19 16:44 45.589208 -122.598487 19 44ft 0kts
24-Oct-19 16:45 45.589208 -122.598487 19 44ft 0kts
24-Oct-19 16:46 45.589208 -122.598487 19 44ft 0kts
24-Oct-19 16:47 45.589208 -122.598487 19 44ft 0kts
24-Oct-19 16:48 45.589208 -122.598487 19 44ft 0kts
24-Oct-19 16:48 45.589208 -122.598487 19 44ft 0kts
24-Oct-19 16:50 45.589208 -122.598487 19 44ft 0kts
24-Oct-19 16:51 45.589208 -122.598487 19 44ft 0kts
24-Oct-19 16:52 45.589078 -122.598554 19 44ft 2kts
24-Oct-19 16:52 45.588565 -122.598777 2 44ft 2kts
24-Oct-19 16:53 45.588325 -122.598580 299 44ft 0kts
24-Oct-19 16:55 45.588325 -122.598581 299 44ft 0kts
24-Oct-19 16:55 45.588331 -122.598598 294 44ft 0kts
24-Oct-19 16:56 45.588373 -122.600845 299 44ft 10kts
24-Oct-19 16:57 45.590329 -122.605118 315 44ft 15kts
24-Oct-19 16:58 45.592856 -122.610765 298 44ft 19kts
24-Oct-19 16:59 45.595710 -122.618072 300 44ft 22kts
24-Oct-19 17:00 45.594937 -122.620937 116 44ft 5kts
24-Oct-19 17:01 45.582703 -122.589248 119 421ft 179kts
24-Oct-19 17:02 45.571727 -122.508872 96 2585ft 243kts
24-Oct-19 17:03 45.537041 -122.419777 148 5671ft 286kts
24-Oct-19 17:04 45.459363 -122.423296 195 9273ft 292kts
24-Oct-19 17:05 45.372911 -122.426185 176 11639ft 341kts
24-Oct-19 17:06 45.270476 -122.416276 180 13520ft 389kts
24-Oct-19 17:07 45.159927 -122.407386 180 16037ft 406kts
24-Oct-19 17:08 45.045328 -122.398018 180 18252ft 421kts
24-Oct-19 17:09 44.926502 -122.385145 175 20275ft 436kts
24-Oct-19 17:10 44.805285 -122.354218 174 22069ft 449kts
24-Oct-19 17:11 44.680550 -122.323621 174 23906ft 453kts
24-Oct-19 17:12 44.559260 -122.293773 175 26312ft 444kts
24-Oct-19 17:13 44.433140 -122.263011 175 26878ft 478kts
24-Oct-19 17:14 44.302787 -122.231071 175 28852ft 472kts
24-Oct-19 17:15 44.173651 -122.199847 175 30807ft 468kts
24-Oct-19 17:16 44.045929 -122.168967 176 32793ft 463kts
24-Oct-19 17:17 43.919533 -122.138656 176 34575ft 459kts
24-Oct-19 17:18 43.794709 -122.108753 177 36239ft 453kts
24-Oct-19 17:19 43.671009 -122.079311 177 37386ft 448kts
24-Oct-19 17:20 43.548801 -122.050334 177 37379ft 446kts
24-Oct-19 17:21 43.426328 -122.021394 177 37370ft 446kts
24-Oct-19 17:22 43.303823 -121.992655 176 37349ft 446kts
24-Oct-19 17:23 43.180254 -121.963692 176 37363ft 458kts
24-Oct-19 17:24 43.053161 -121.933923 176 37360ft 466kts
24-Oct-19 17:25 42.925187 -121.904196 175 37360ft 466kts
24-Oct-19 17:26 42.797533 -121.874675 175 37399ft 465kts
24-Oct-19 17:27 42.669743 -121.845249 175 37374ft 465kts
24-Oct-19 17:28 42.542257 -121.815968 174 37384ft 464kts
24-Oct-19 17:29 42.414831 -121.786812 174 37393ft 464kts
24-Oct-19 17:30 42.287596 -121.757869 174 37413ft 463kts
24-Oct-19 17:31 42.160612 -121.729383 177 37450ft 461kts
24-Oct-19 17:32 42.033421 -121.727001 184 37436ft 457kts
24-Oct-19 17:33 41.906004 -121.726163 183 37409ft 458kts
24-Oct-19 17:34 41.778717 -121.725750 183 37412ft 457kts
24-Oct-19 17:35 41.651408 -121.725055 183 37375ft 458kts
24-Oct-19 17:36 41.523303 -121.724477 183 37350ft 460kts
24-Oct-19 17:37 41.395237 -121.723863 183 37376ft 461kts
24-Oct-19 17:38 41.267156 -121.723281 183 37396ft 461kts
24-Oct-19 17:39 41.138439 -121.722667 182 37384ft 462kts
24-Oct-19 17:40 41.009943 -121.722067 182 37356ft 462kts
24-Oct-19 17:41 40.881331 -121.721464 182 37290ft 462kts
24-Oct-19 17:42 40.752763 -121.720877 182 37250ft 462kts
24-Oct-19 17:43 40.625052 -121.720270 182 36368ft 455kts
24-Oct-19 17:44 40.498403 -121.719744 181 33595ft 457kts
24-Oct-19 17:45 40.370663 -121.713878 178 30787ft 459kts
24-Oct-19 17:46 40.242772 -121.702500 177 27694ft 462kts
24-Oct-19 17:47 40.113646 -121.691544 177 24266ft 464kts
24-Oct-19 17:48 39.986094 -121.680587 176 21111ft 457kts
24-Oct-19 17:49 39.860208 -121.669879 175 18148ft 451kts
24-Oct-19 17:50 39.737422 -121.659441 175 15251ft 432kts
24-Oct-19 17:51 39.620040 -121.649500 174 12566ft 407kts
24-Oct-19 17:52 39.515889 -121.640747 174 11998ft 339kts
24-Oct-19 17:53 39.429008 -121.633354 174 11980ft 300kts
24-Oct-19 17:54 39.346259 -121.626388 175 10388ft 296kts
24-Oct-19 17:55 39.264799 -121.619537 175 8748ft 290kts
24-Oct-19 17:56 39.185915 -121.612974 176 7085ft 276kts
24-Oct-19 17:57 39.113564 -121.606950 176 6040ft 252kts
24-Oct-19 17:58 39.049412 -121.601619 176 5082ft 221kts
24-Oct-19 17:59 38.987013 -121.595833 174 3632ft 232kts
24-Oct-19 18:00 38.922941 -121.588141 174 2408ft 229kts
24-Oct-19 18:01 38.862183 -121.581103 174 1972ft 207kts
24-Oct-19 18:02 38.808938 -121.578393 181 1909ft 175kts
24-Oct-19 18:03 38.764860 -121.579056 181 1108ft 136kts
24-Oct-19 18:04 38.726375 -121.579731 181 420ft 137kts
24-Oct-19 18:05 38.693108 -121.580309 183 42ft 22kts
24-Oct-19 18:06 38.690489 -121.582948 1 42ft 7kts
24-Oct-19 18:07 38.691851 -121.583744 271 42ft 0kts
24-Oct-19 18:08 38.691930 -121.584754 303 42ft 5kts
24-Oct-19 18:09 38.694142 -121.586043 315 42ft 10kts
24-Oct-19 18:10 38.696177 -121.587183 268 42ft 9kts
24-Oct-19 18:11 38.696951 -121.590194 268 42ft 10kts
24-Oct-19 18:12 38.696749 -121.594100 186 42ft 5kts
24-Oct-19 18:13 38.696262 -121.594106 181 42ft 0kts
24-Oct-19 18:14 38.696262 -121.594106 181 42ft 0kts
24-Oct-19 18:15 38.696262 -121.594106 181 42ft 0kts
24-Oct-19 18:16 38.696262 -121.594106 181 42ft 0kts
24-Oct-19 18:17 38.696262 -121.594106 181 42ft 0kts
24-Oct-19 18:18 38.696262 -121.594106 181 42ft 0kts
24-Oct-19 18:19 38.696262 -121.594106 181 42ft 0kts

Navigation Log

Ident Type
Flight plan parsing failed, navigation log unavailable